Obelix — 7JAX — position and weather

sailwx.info

Track history (hours):
 
Tides and Currents Weather Stations Pressure Air Temp Water Temp Dewpoint Dewpoint Depression Visibility Wind Speed Wind Dir Waves Ship Positions

Obelix

Last reported at 2015-Feb-26 23:05 UTC. Time now 2015-Feb-27 00:29 UTC.
Position N 35°30' E 140°01'.

Length 74 m; draft 4 m.

Type: Ship (hazmat cat D). MMSI: 432528000.

Date/timePositionNaut miles runAvg speedWind from/ knotsBaromVisibWave heightAir tempDewpointWater temp
2015-Feb-26 23:05N 35°30' E 140°01'4 5.3
2015-Feb-26 22:24N 35°30' E 139°57'2 1.8
2015-Feb-26 21:22N 35°29' E 139°55'0 0.0
2015-Feb-26 20:07N 35°29' E 139°55'0 0.0
2015-Feb-26 18:16N 35°29' E 139°55'0 0.0
2015-Feb-26 16:25N 35°29' E 139°55'3 1.2
2015-Feb-26 13:33N 35°28' E 139°51'1110.8
2015-Feb-26 12:34N 35°18' E 139°45'1111.4
2015-Feb-26 11:33N 35°07' E 139°46'1211.4
2015-Feb-26 10:33N 34°59' E 139°35'238 9.0
2015-Feb-25 08:10N 34°40' E 134°46'4 0.3
2015-Feb-24 18:27N 34°39' E 134°51'1112.1
2015-Feb-24 17:33N 34°36' E 135°04'1211.9
2015-Feb-24 16:33N 34°24' E 135°02'1312.6
2015-Feb-24 15:33N 34°12' E 134°59'1212.2
2015-Feb-24 14:33N 33°60' E 135°01'245 9.7
2015-Feb-23 13:19N 35°11' E 139°45'811.1
2015-Feb-23 12:33N 35°19' E 139°43'1110.8
2015-Feb-23 11:33N 35°28' E 139°50'4 2.7
2015-Feb-23 10:06N 35°28' E 139°55'0 0.0
2015-Feb-23 09:18N 35°28' E 139°55'0 0.1
2015-Feb-23 08:30N 35°28' E 139°55'0 0.0
2015-Feb-23 07:30N 35°29' E 139°55'0 0.1
2015-Feb-23 06:33N 35°29' E 139°55'0 0.0
2015-Feb-23 05:33N 35°29' E 139°55'0 0.0
2015-Feb-23 04:33N 35°29' E 139°55'0 0.0
2015-Feb-23 03:27N 35°29' E 139°55'0 0.1
2015-Feb-23 02:30N 35°29' E 139°55'0 0.1
2015-Feb-23 01:21N 35°28' E 139°55'0 0.0
2015-Feb-23 00:24N 35°28' E 139°55'0 0.1
2015-Feb-22 23:33N 35°28' E 139°55'0 0.0
2015-Feb-22 22:32N 35°28' E 139°55'0 0.1
2015-Feb-22 21:34N 35°29' E 139°55'0 0.0
2015-Feb-22 20:33N 35°29' E 139°55'0 0.0
2015-Feb-22 19:31N 35°29' E 139°55'0 0.0
2015-Feb-22 18:30N 35°29' E 139°55'0 0.0
2015-Feb-22 17:30N 35°29' E 139°55'0 0.0
2015-Feb-22 16:31N 35°29' E 139°55'0 0.0
2015-Feb-22 15:30N 35°29' E 139°55'0 0.0
2015-Feb-22 14:33N 35°29' E 139°55'0 0.0
2015-Feb-22 13:33N 35°29' E 139°55'0 0.1
2015-Feb-22 12:21N 35°28' E 139°55'0 0.0
2015-Feb-22 09:33N 35°28' E 139°55'0 0.0
2015-Feb-22 08:30N 35°28' E 139°55'0 0.1
2015-Feb-22 07:33N 35°28' E 139°55'0 0.0
2015-Feb-22 06:30N 35°28' E 139°55'0 0.0
2015-Feb-22 03:33N 35°28' E 139°55'3 0.6
2015-Feb-21 22:12N 35°30' E 139°58'2 3.6
2015-Feb-21 21:33N 35°29' E 139°56'0 0.0
2015-Feb-21 20:32N 35°29' E 139°56'0 0.0
2015-Feb-21 19:26N 35°29' E 139°56'0 0.1
2015-Feb-21 18:29N 35°29' E 139°56'0 0.0
2015-Feb-21 10:20N 35°29' E 139°56'4 0.7
2015-Feb-21 04:21N 35°30' E 140°00'0 0.2
2015-Feb-21 03:29N 35°30' E 140°00'5 5.0
2015-Feb-21 02:32N 35°28' E 139°55'0 0.0
2015-Feb-21 01:27N 35°28' E 139°55'0 0.0
2015-Feb-21 00:21N 35°28' E 139°55'0 0.0
2015-Feb-20 23:27N 35°28' E 139°55'0 0.0
2015-Feb-20 19:27N 35°28' E 139°55'0 0.0
2015-Feb-20 16:06N 35°28' E 139°55'0 0.0
2015-Feb-20 15:15N 35°28' E 139°55'0 0.1
2015-Feb-20 14:21N 35°28' E 139°55'3 0.9
2015-Feb-20 11:32N 35°29' E 139°52'1110.8
2015-Feb-20 10:33N 35°20' E 139°44'1111.2
2015-Feb-20 09:33N 35°09' E 139°46'1211.9
2015-Feb-20 08:33N 35°00' E 139°37'23710.6
2015-Feb-19 10:08N 33°58' E 134°60'712.6
2015-Feb-19 09:33N 34°05' E 134°59'1312.7
2015-Feb-19 08:32N 34°18' E 134°59'1312.6
2015-Feb-19 07:32N 34°30' E 135°02'9 9.3
2015-Feb-19 06:33N 34°37' E 134°54'8 1.1
2015-Feb-18 23:19N 34°42' E 134°47'0 0.0
2015-Feb-18 21:28N 34°42' E 134°47'0 0.0
2015-Feb-18 13:07N 34°42' E 134°47'  
Track history (hours):
 
Tides and Currents Weather Stations Pressure Air Temp Water Temp Dewpoint Dewpoint Depression Visibility Wind Speed Wind Dir Waves Ship Positions

Obelix

Last reported at 2015-Feb-26 23:05 UTC. Time now 2015-Feb-27 00:29 UTC.
Position N 35°30' E 140°01'.

Length 74 m; draft 4 m.

Type: Ship (hazmat cat D). MMSI: 432528000.

Date/timePositionNaut miles runAvg speedWind from/ knotsBaromVisibWave heightAir tempDewpointWater temp
2015-Feb-26 23:05N 35°30' E 140°01'4 5.3
2015-Feb-26 22:24N 35°30' E 139°57'2 1.8
2015-Feb-26 21:22N 35°29' E 139°55'0 0.0
2015-Feb-26 20:07N 35°29' E 139°55'0 0.0
2015-Feb-26 18:16N 35°29' E 139°55'0 0.0
2015-Feb-26 16:25N 35°29' E 139°55'3 1.2
2015-Feb-26 13:33N 35°28' E 139°51'1110.8
2015-Feb-26 12:34N 35°18' E 139°45'1111.4
2015-Feb-26 11:33N 35°07' E 139°46'1211.4
2015-Feb-26 10:33N 34°59' E 139°35'238 9.0
2015-Feb-25 08:10N 34°40' E 134°46'4 0.3
2015-Feb-24 18:27N 34°39' E 134°51'1112.1
2015-Feb-24 17:33N 34°36' E 135°04'1211.9
2015-Feb-24 16:33N 34°24' E 135°02'1312.6
2015-Feb-24 15:33N 34°12' E 134°59'1212.2
2015-Feb-24 14:33N 33°60' E 135°01'245 9.7
2015-Feb-23 13:19N 35°11' E 139°45'811.1
2015-Feb-23 12:33N 35°19' E 139°43'1110.8
2015-Feb-23 11:33N 35°28' E 139°50'4 2.7
2015-Feb-23 10:06N 35°28' E 139°55'0 0.0
2015-Feb-23 09:18N 35°28' E 139°55'0 0.1
2015-Feb-23 08:30N 35°28' E 139°55'0 0.0
2015-Feb-23 07:30N 35°29' E 139°55'0 0.1
2015-Feb-23 06:33N 35°29' E 139°55'0 0.0
2015-Feb-23 05:33N 35°29' E 139°55'0 0.0
2015-Feb-23 04:33N 35°29' E 139°55'0 0.0
2015-Feb-23 03:27N 35°29' E 139°55'0 0.1
2015-Feb-23 02:30N 35°29' E 139°55'0 0.1
2015-Feb-23 01:21N 35°28' E 139°55'0 0.0
2015-Feb-23 00:24N 35°28' E 139°55'0 0.1
2015-Feb-22 23:33N 35°28' E 139°55'0 0.0
2015-Feb-22 22:32N 35°28' E 139°55'0 0.1
2015-Feb-22 21:34N 35°29' E 139°55'0 0.0
2015-Feb-22 20:33N 35°29' E 139°55'0 0.0
2015-Feb-22 19:31N 35°29' E 139°55'0 0.0
2015-Feb-22 18:30N 35°29' E 139°55'0 0.0
2015-Feb-22 17:30N 35°29' E 139°55'0 0.0
2015-Feb-22 16:31N 35°29' E 139°55'0 0.0
2015-Feb-22 15:30N 35°29' E 139°55'0 0.0
2015-Feb-22 14:33N 35°29' E 139°55'0 0.0
2015-Feb-22 13:33N 35°29' E 139°55'0 0.1
2015-Feb-22 12:21N 35°28' E 139°55'0 0.0
2015-Feb-22 09:33N 35°28' E 139°55'0 0.0
2015-Feb-22 08:30N 35°28' E 139°55'0 0.1
2015-Feb-22 07:33N 35°28' E 139°55'0 0.0
2015-Feb-22 06:30N 35°28' E 139°55'0 0.0
2015-Feb-22 03:33N 35°28' E 139°55'3 0.6
2015-Feb-21 22:12N 35°30' E 139°58'2 3.6
2015-Feb-21 21:33N 35°29' E 139°56'0 0.0
2015-Feb-21 20:32N 35°29' E 139°56'0 0.0
2015-Feb-21 19:26N 35°29' E 139°56'0 0.1
2015-Feb-21 18:29N 35°29' E 139°56'0 0.0
2015-Feb-21 10:20N 35°29' E 139°56'4 0.7
2015-Feb-21 04:21N 35°30' E 140°00'0 0.2
2015-Feb-21 03:29N 35°30' E 140°00'5 5.0
2015-Feb-21 02:32N 35°28' E 139°55'0 0.0
2015-Feb-21 01:27N 35°28' E 139°55'0 0.0
2015-Feb-21 00:21N 35°28' E 139°55'0 0.0
2015-Feb-20 23:27N 35°28' E 139°55'0 0.0
2015-Feb-20 19:27N 35°28' E 139°55'0 0.0
2015-Feb-20 16:06N 35°28' E 139°55'0 0.0
2015-Feb-20 15:15N 35°28' E 139°55'0 0.1
2015-Feb-20 14:21N 35°28' E 139°55'3 0.9
2015-Feb-20 11:32N 35°29' E 139°52'1110.8
2015-Feb-20 10:33N 35°20' E 139°44'1111.2
2015-Feb-20 09:33N 35°09' E 139°46'1211.9
2015-Feb-20 08:33N 35°00' E 139°37'23710.6
2015-Feb-19 10:08N 33°58' E 134°60'712.6
2015-Feb-19 09:33N 34°05' E 134°59'1312.7
2015-Feb-19 08:32N 34°18' E 134°59'1312.6
2015-Feb-19 07:32N 34°30' E 135°02'9 9.3
2015-Feb-19 06:33N 34°37' E 134°54'8 1.1
2015-Feb-18 23:19N 34°42' E 134°47'0 0.0
2015-Feb-18 21:28N 34°42' E 134°47'0 0.0
2015-Feb-18 13:07N 34°42' E 134°47'  

Dump ship's entire track history